Skip Navigation LinksHome page > Weather > Current weather Skip Navigation Links

Current Weather

New Tokyo International (Narita), Tokyo

For information only: do not use for flight planning or navigation.
Latest weather
Observation time Wednesday, May 4, 2016 8:30 PM JST
Local time Wednesday, May 4, 2016 8:42 PM JST
Flight conditions Visual Meteorological Conditions
Winds
Wind direction Southwest (230°)
Wind speed 16 mph
Wind gusting to 30 mph
Visibility 6.2 mi.
Present weather WS
Sky condition
Ceiling unlimited
Cloud layer few clouds 3,000 ft.
Temperature 68°F
Dewpoint 48°F
Altimeter 29.65 in.Hg
Precipitation
Began 9:17 PM
Derived measurements
Relative humidity 49%
Density altitude 1207 ft.
Remarks
And.
METAR RJAA 041130Z 23014KT 9999 FEW030 20/09 Q1004 WS R16R TEMPO 22016G26KT RMK 1CU030 A2965 MOD TURB OBS AT 1117Z ON FNA RWY16R 500FT AND BLW IN DES B77W ANA113

Settings

Location code

InnerDrive.Weather 4.0.5722.1 Release CLR 4.0.30319.34209
Copyright ©2015 Inner Drive Technology. All rights reserved. Portions Copyright ©1986-2015 David Braverman.

Find weather

Site navigation


Skip Navigation Links

Place info

Page info

PayPal - The safer, easier way to pay online!

Return home.

Copyright ©2016 Inner Drive Technology. Purveyors of fine, hand-crafted computer software. Page printed 2016-05-04T11:42:16 UTC.